createdAt,value
2023-03-29T00:02:07.643Z,1.80
2023-03-29T00:04:35.532Z,4.82
2023-03-29T00:07:04.492Z,1.45
2023-03-29T00:09:33.484Z,2.10
2023-03-29T00:12:01.801Z,1.67
2023-03-29T00:14:32.748Z,2.97
2023-03-29T00:16:59.979Z,2.95
2023-03-29T00:19:27.380Z,2.03
2023-03-29T00:21:54.848Z,1.77
2023-03-29T00:24:23.908Z,1.25
2023-03-29T00:29:18.450Z,1.40
2023-03-29T00:31:52.345Z,1.60
2023-03-29T00:34:23.282Z,2.55
2023-03-29T00:36:50.967Z,1.88
2023-03-29T00:39:19.063Z,1.77
2023-03-29T00:41:47.637Z,0.98
2023-03-29T00:44:53.553Z,1.15
2023-03-29T00:47:30.394Z,2.00
2023-03-29T00:50:01.676Z,1.23
2023-03-29T00:52:32.125Z,2.08
2023-03-29T00:55:03.814Z,1.20
2023-03-29T00:57:32.509Z,0.90
2023-03-29T01:00:00.059Z,1.08
2023-03-29T01:02:29.249Z,1.77
2023-03-29T01:05:00.722Z,1.80
2023-03-29T01:08:02.731Z,1.85
2023-03-29T01:10:37.614Z,1.08
2023-03-29T01:13:09.435Z,2.00
2023-03-29T01:15:37.698Z,1.38
2023-03-29T01:18:05.011Z,1.97
2023-03-29T01:20:43.818Z,1.42
2023-03-29T01:23:28.717Z,1.20
2023-03-29T01:26:12.937Z,1.30
2023-03-29T01:28:50.852Z,1.85
2023-03-29T01:31:22.571Z,1.88
2023-03-29T01:33:53.582Z,1.65
2023-03-29T01:36:28.062Z,1.33
2023-03-29T01:39:00.808Z,1.52
2023-03-29T01:41:41.334Z,1.45
2023-03-29T01:44:19.616Z,0.85
2023-03-29T01:46:48.421Z,1.00
2023-03-29T01:49:25.218Z,1.98
2023-03-29T01:51:59.878Z,0.80
2023-03-29T01:54:33.495Z,2.15
2023-03-29T01:57:04.650Z,1.45
2023-03-29T01:59:34.442Z,1.10
2023-03-29T02:02:05.082Z,2.65
2023-03-29T02:04:38.676Z,0.55
2023-03-29T02:07:08.682Z,1.02
2023-03-29T02:09:37.242Z,1.50
2023-03-29T02:12:04.797Z,1.05
2023-03-29T02:14:31.981Z,1.40
2023-03-29T02:17:18.292Z,1.38
2023-03-29T02:19:50.106Z,0.90
2023-03-29T02:22:23.310Z,0.65
2023-03-29T02:24:52.118Z,0.98
2023-03-29T02:27:19.283Z,1.30
2023-03-29T02:29:47.805Z,2.67
2023-03-29T02:32:28.486Z,1.05
2023-03-29T02:34:59.275Z,1.73
2023-03-29T02:37:30.208Z,1.48
2023-03-29T02:39:57.938Z,2.30
2023-03-29T02:42:26.168Z,0.70
2023-03-29T02:44:56.148Z,1.73
2023-03-29T02:47:32.077Z,1.25
2023-03-29T02:50:00.206Z,0.90
2023-03-29T02:52:33.426Z,1.13
2023-03-29T02:55:03.086Z,0.57
2023-03-29T02:57:32.271Z,1.05
2023-03-29T02:59:59.839Z,1.27
2023-03-29T03:02:28.133Z,1.40
2023-03-29T03:04:55.432Z,1.00
2023-03-29T03:07:22.610Z,0.60
2023-03-29T03:09:49.792Z,1.00
2023-03-29T03:12:17.313Z,0.65
2023-03-29T03:14:44.679Z,1.48
2023-03-29T03:17:11.932Z,0.47
2023-03-29T03:19:39.173Z,0.60
2023-03-29T03:22:07.656Z,0.80
2023-03-29T03:24:35.426Z,0.65
2023-03-29T03:27:02.619Z,0.60
2023-03-29T03:29:29.846Z,0.75
2023-03-29T03:31:57.051Z,1.52
2023-03-29T03:34:24.293Z,1.10
2023-03-29T03:36:51.493Z,1.45
2023-03-29T03:39:18.908Z,0.88
2023-03-29T03:41:46.198Z,0.82
2023-03-29T03:44:13.422Z,0.63
2023-03-29T03:46:40.594Z,1.08
2023-03-29T03:49:07.836Z,2.85
2023-03-29T03:51:38.106Z,0.45
2023-03-29T03:54:05.649Z,0.93
2023-03-29T03:56:34.190Z,0.57
2023-03-29T03:59:01.469Z,0.98
2023-03-29T04:01:28.628Z,1.98
2023-03-29T04:03:55.976Z,1.40
2023-03-29T04:06:23.271Z,0.85
2023-03-29T04:08:50.597Z,2.88
2023-03-29T04:11:17.801Z,1.08
2023-03-29T04:13:45.005Z,1.85
2023-03-29T04:16:12.456Z,1.08
2023-03-29T04:18:39.786Z,1.98
2023-03-29T04:21:07.115Z,1.05
2023-03-29T04:23:34.401Z,0.50
2023-03-29T04:26:01.554Z,1.65
2023-03-29T04:28:28.742Z,0.85
2023-03-29T04:30:56.278Z,1.05
2023-03-29T04:33:23.541Z,1.08
2023-03-29T04:35:50.807Z,1.13
2023-03-29T04:38:22.935Z,0.88
2023-03-29T04:40:51.016Z,1.08
2023-03-29T04:43:18.282Z,1.38
2023-03-29T04:45:45.581Z,1.17
2023-03-29T04:48:13.039Z,0.70
2023-03-29T04:50:40.773Z,1.50
2023-03-29T04:53:08.535Z,0.75
2023-03-29T04:55:38.402Z,0.68
2023-03-29T04:58:07.989Z,0.98
2023-03-29T05:00:35.362Z,1.30
2023-03-29T05:03:04.302Z,1.00
2023-03-29T05:07:58.748Z,1.40
2023-03-29T05:10:26.006Z,2.05
2023-03-29T05:12:54.136Z,3.40
2023-03-29T05:15:22.433Z,12.10
2023-03-29T05:17:49.725Z,12.25
2023-03-29T05:20:17.608Z,8.93
2023-03-29T05:22:44.804Z,7.78
2023-03-29T05:25:12.481Z,7.35
2023-03-29T05:27:39.931Z,8.32
2023-03-29T05:30:09.333Z,7.53
2023-03-29T05:32:39.500Z,7.68
2023-03-29T05:35:06.961Z,7.60
2023-03-29T05:37:34.605Z,5.88
2023-03-29T05:40:05.762Z,5.93
2023-03-29T05:42:33.609Z,13.75
2023-03-29T05:45:00.882Z,8.43
2023-03-29T05:47:28.569Z,9.48
2023-03-29T05:49:55.939Z,6.22
2023-03-29T05:52:23.817Z,8.45
2023-03-29T05:54:51.534Z,7.75
2023-03-29T05:57:18.814Z,10.93
2023-03-29T05:59:46.892Z,8.65
2023-03-29T06:02:16.038Z,5.63
2023-03-29T06:04:43.407Z,6.90
2023-03-29T06:07:12.463Z,10.05
2023-03-29T06:09:39.929Z,7.85
2023-03-29T06:12:07.961Z,10.02
2023-03-29T06:14:36.411Z,9.05
2023-03-29T06:17:03.752Z,10.65
2023-03-29T06:19:31.062Z,6.85
2023-03-29T06:21:58.324Z,9.38
2023-03-29T06:24:26.045Z,8.13
2023-03-29T06:26:53.344Z,11.70
2023-03-29T06:29:20.734Z,5.30
2023-03-29T06:31:57.349Z,9.57
2023-03-29T06:34:24.626Z,9.48
2023-03-29T06:36:52.949Z,10.38
2023-03-29T06:39:20.479Z,10.55
2023-03-29T06:41:47.876Z,8.90
2023-03-29T06:44:15.307Z,8.98
2023-03-29T06:46:42.674Z,10.30
2023-03-29T06:49:10.207Z,8.10
2023-03-29T06:51:37.511Z,11.57
2023-03-29T06:54:05.391Z,7.60
2023-03-29T06:56:34.170Z,8.82
2023-03-29T06:59:01.386Z,10.88
2023-03-29T07:01:28.669Z,14.80
2023-03-29T07:03:57.278Z,5.50
2023-03-29T07:06:24.482Z,8.68
2023-03-29T07:08:52.490Z,8.02
2023-03-29T07:11:20.385Z,11.43
2023-03-29T07:13:48.898Z,7.15
2023-03-29T07:16:16.326Z,11.05
2023-03-29T07:18:46.820Z,9.02
2023-03-29T07:21:14.009Z,6.57
2023-03-29T07:23:42.187Z,5.57
2023-03-29T07:26:10.389Z,7.97
2023-03-29T07:28:40.620Z,8.23
2023-03-29T07:31:11.123Z,7.10
2023-03-29T07:33:42.477Z,11.55
2023-03-29T07:36:11.077Z,6.43
2023-03-29T07:38:38.545Z,6.50
2023-03-29T07:41:07.928Z,7.13
2023-03-29T07:43:35.518Z,6.10
2023-03-29T07:46:04.814Z,3.28
2023-03-29T07:48:32.967Z,11.82
2023-03-29T07:51:00.990Z,7.88
2023-03-29T07:53:29.600Z,6.43
2023-03-29T07:55:57.055Z,4.60
2023-03-29T07:58:24.324Z,5.32
2023-03-29T08:00:51.529Z,6.75
2023-03-29T08:03:19.061Z,5.53
2023-03-29T08:05:47.442Z,4.25
2023-03-29T08:08:14.701Z,7.25
2023-03-29T08:10:42.502Z,3.85
2023-03-29T08:13:10.242Z,8.52
2023-03-29T08:15:39.329Z,5.82
2023-03-29T08:20:34.276Z,4.18
2023-03-29T08:23:01.756Z,5.05
2023-03-29T08:25:29.255Z,3.90
2023-03-29T08:27:56.630Z,5.22
2023-03-29T08:30:23.940Z,3.85
2023-03-29T08:32:53.653Z,6.63
2023-03-29T08:35:22.369Z,5.22
2023-03-29T08:37:49.619Z,5.55
2023-03-29T08:40:21.427Z,5.00
2023-03-29T08:43:07.407Z,3.50
2023-03-29T08:46:00.423Z,6.40
2023-03-29T08:48:42.314Z,2.55
2023-03-29T08:51:21.946Z,7.57
2023-03-29T08:53:57.750Z,4.10
2023-03-29T08:56:27.764Z,4.25
2023-03-29T08:58:57.685Z,3.08
2023-03-29T09:01:27.998Z,1.73
2023-03-29T09:04:09.085Z,4.10
2023-03-29T09:06:38.844Z,2.15
2023-03-29T09:09:17.767Z,3.10
2023-03-29T09:14:33.873Z,2.30
2023-03-29T09:17:23.324Z,2.25
2023-03-29T09:20:04.946Z,4.65
2023-03-29T09:23:13.552Z,3.38
2023-03-29T09:26:08.269Z,4.22
2023-03-29T09:28:43.940Z,2.78
2023-03-29T09:31:16.690Z,2.78
2023-03-29T09:33:52.399Z,2.75
2023-03-29T09:36:52.430Z,3.03
2023-03-29T09:39:23.116Z,2.78
2023-03-29T09:41:57.769Z,3.05
2023-03-29T09:44:31.335Z,3.67
2023-03-29T09:47:08.772Z,4.25
2023-03-29T09:49:40.394Z,2.78
2023-03-29T09:52:13.009Z,2.80
2023-03-29T09:54:40.643Z,4.38
2023-03-29T09:57:14.065Z,2.67
2023-03-29T09:59:41.335Z,1.92
2023-03-29T10:02:11.953Z,2.83
2023-03-29T10:04:41.970Z,2.67
2023-03-29T10:07:16.652Z,3.40
2023-03-29T10:09:45.663Z,2.00
2023-03-29T10:14:53.606Z,3.60
2023-03-29T10:17:32.686Z,2.92
2023-03-29T10:20:04.508Z,2.40
2023-03-29T10:22:43.734Z,2.55
2023-03-29T10:25:15.760Z,2.55
2023-03-29T10:27:44.705Z,5.07
2023-03-29T10:30:23.128Z,2.90
2023-03-29T10:32:58.878Z,1.90
2023-03-29T10:35:29.968Z,2.22
2023-03-29T10:38:01.667Z,3.72
2023-03-29T10:40:30.917Z,5.20
2023-03-29T10:43:11.842Z,3.35
2023-03-29T10:45:42.797Z,2.65
2023-03-29T10:48:14.751Z,2.33
2023-03-29T10:50:42.971Z,2.10
2023-03-29T10:53:19.218Z,2.77
2023-03-29T10:56:08.174Z,3.38
2023-03-29T11:01:17.822Z,1.55
2023-03-29T11:03:57.122Z,2.00
2023-03-29T11:06:37.115Z,1.23
2023-03-29T11:09:27.650Z,3.13
2023-03-29T11:12:27.829Z,1.05
2023-03-29T11:15:32.202Z,1.88
2023-03-29T11:18:33.182Z,3.13
2023-03-29T11:21:17.786Z,1.70
2023-03-29T11:24:23.192Z,2.85
2023-03-29T11:27:11.708Z,4.30
2023-03-29T11:29:43.397Z,2.60
2023-03-29T11:32:37.261Z,0.95
2023-03-29T11:35:25.364Z,2.63
2023-03-29T11:38:21.799Z,1.00
2023-03-29T11:40:54.966Z,1.80
2023-03-29T11:43:38.689Z,2.25
2023-03-29T11:46:21.998Z,1.63
2023-03-29T11:49:11.226Z,2.03
2023-03-29T11:52:13.345Z,1.48
2023-03-29T11:54:51.934Z,1.42
2023-03-29T11:57:36.364Z,1.85
2023-03-29T12:00:26.098Z,3.90
2023-03-29T12:02:58.663Z,7.70
2023-03-29T12:05:51.652Z,4.97
2023-03-29T12:08:26.780Z,3.88
2023-03-29T12:11:07.139Z,2.20
2023-03-29T12:13:49.501Z,4.63
2023-03-29T12:16:34.429Z,3.95
2023-03-29T12:19:17.402Z,2.92
2023-03-29T12:21:46.310Z,5.47
2023-03-29T12:24:15.885Z,3.65
2023-03-29T12:26:57.854Z,2.80
2023-03-29T12:29:39.547Z,3.28
2023-03-29T12:32:28.979Z,2.13
2023-03-29T12:35:18.566Z,5.15
2023-03-29T12:37:53.397Z,4.07
2023-03-29T12:40:22.558Z,2.75
2023-03-29T12:43:05.375Z,1.15
2023-03-29T12:45:40.044Z,4.78
2023-03-29T12:48:13.264Z,1.98
2023-03-29T12:50:52.787Z,3.78
2023-03-29T12:53:34.699Z,5.45
2023-03-29T12:56:09.495Z,2.42
2023-03-29T12:58:48.729Z,2.38
2023-03-29T13:01:29.203Z,3.00
2023-03-29T13:04:01.430Z,4.35
2023-03-29T13:06:48.650Z,2.40
2023-03-29T13:09:30.411Z,5.95
2023-03-29T13:12:13.114Z,11.55
2023-03-29T13:14:47.023Z,2.78
2023-03-29T13:18:04.472Z,3.72
2023-03-29T13:21:03.398Z,6.07
2023-03-29T13:23:39.800Z,1.92
2023-03-29T13:26:27.039Z,4.95
2023-03-29T13:29:22.410Z,1.95
2023-03-29T13:32:20.190Z,2.53
2023-03-29T13:34:57.618Z,3.70
2023-03-29T13:37:41.817Z,2.05
2023-03-29T13:40:33.167Z,2.38
2023-03-29T13:43:09.262Z,3.67
2023-03-29T13:45:37.054Z,1.15
2023-03-29T13:48:21.920Z,2.85
2023-03-29T13:51:08.012Z,5.78
2023-03-29T13:53:40.862Z,2.70
2023-03-29T13:56:14.515Z,1.67
2023-03-29T13:58:58.369Z,1.17
2023-03-29T14:01:39.563Z,3.63
2023-03-29T14:04:08.368Z,2.60
2023-03-29T14:06:36.738Z,4.35
2023-03-29T14:09:09.121Z,2.28
2023-03-29T14:11:36.511Z,4.88
2023-03-29T14:14:05.274Z,2.10
2023-03-29T14:16:36.778Z,2.60
2023-03-29T14:19:06.862Z,5.03
2023-03-29T14:21:34.676Z,6.63
2023-03-29T14:24:02.956Z,2.97
2023-03-29T14:26:33.505Z,3.40
2023-03-29T14:29:02.101Z,2.80
2023-03-29T14:31:36.036Z,1.83
2023-03-29T14:34:06.096Z,2.95
2023-03-29T14:36:34.123Z,1.00
2023-03-29T14:39:18.804Z,1.53
2023-03-29T14:41:59.379Z,3.42
2023-03-29T14:44:29.856Z,4.95
2023-03-29T14:46:57.777Z,1.90
2023-03-29T14:49:25.231Z,2.63
2023-03-29T14:51:53.379Z,2.45
2023-03-29T14:54:24.973Z,2.77
2023-03-29T14:56:52.978Z,4.50
2023-03-29T14:59:35.203Z,6.40
2023-03-29T15:02:03.878Z,6.28
2023-03-29T15:04:35.066Z,6.78
2023-03-29T15:07:04.875Z,8.52
2023-03-29T15:09:34.236Z,6.20
2023-03-29T15:12:02.802Z,1.38
2023-03-29T15:14:36.890Z,4.07
2023-03-29T15:17:14.855Z,3.20
2023-03-29T15:19:42.040Z,3.95
2023-03-29T15:22:11.712Z,2.38
2023-03-29T15:24:46.885Z,4.13
2023-03-29T15:27:16.946Z,5.88
2023-03-29T15:29:46.843Z,3.72
2023-03-29T15:32:25.033Z,3.83
2023-03-29T15:34:59.609Z,1.70
2023-03-29T15:37:26.942Z,1.83
2023-03-29T15:39:54.212Z,5.47
2023-03-29T15:42:21.551Z,2.53
2023-03-29T15:44:48.720Z,2.90
2023-03-29T15:47:16.867Z,4.22
2023-03-29T15:49:44.141Z,1.80
2023-03-29T15:52:12.340Z,1.95
2023-03-29T15:54:39.586Z,2.73
2023-03-29T15:57:10.224Z,2.45
2023-03-29T15:59:37.563Z,3.38
2023-03-29T16:02:05.501Z,6.40
2023-03-29T16:04:32.685Z,2.08
2023-03-29T16:07:00.464Z,3.67
2023-03-29T16:09:27.655Z,3.80
2023-03-29T16:11:55.126Z,2.53
2023-03-29T16:14:30.508Z,4.88
2023-03-29T16:16:59.528Z,6.15
2023-03-29T16:19:27.666Z,3.90
2023-03-29T16:21:55.424Z,3.40
2023-03-29T16:24:28.180Z,3.00
2023-03-29T16:26:56.543Z,2.13
2023-03-29T16:29:24.943Z,1.55
2023-03-29T16:31:52.935Z,2.83
2023-03-29T16:34:21.663Z,2.47
2023-03-29T16:36:49.572Z,1.98
2023-03-29T16:39:18.094Z,1.90
2023-03-29T16:41:48.340Z,2.13
2023-03-29T16:44:23.612Z,2.72
2023-03-29T16:46:53.721Z,4.00
2023-03-29T16:49:21.558Z,1.88
2023-03-29T16:51:49.094Z,1.90
2023-03-29T16:54:17.451Z,1.98
2023-03-29T16:56:44.751Z,6.07
2023-03-29T16:59:12.228Z,2.70
2023-03-29T17:01:40.651Z,2.05
2023-03-29T17:04:08.430Z,1.20
2023-03-29T17:06:36.004Z,3.35
2023-03-29T17:09:03.607Z,2.67
2023-03-29T17:11:31.378Z,4.20
2023-03-29T17:13:58.592Z,6.00
2023-03-29T17:16:28.871Z,2.33
2023-03-29T17:18:58.460Z,4.38
2023-03-29T17:21:26.392Z,1.85
2023-03-29T17:23:53.560Z,1.35
2023-03-29T17:26:20.767Z,2.05
2023-03-29T17:28:50.522Z,2.05
2023-03-29T17:31:19.368Z,4.50
2023-03-29T17:36:14.702Z,2.55
2023-03-29T17:38:43.081Z,3.72
2023-03-29T17:41:11.009Z,3.40
2023-03-29T17:43:38.269Z,2.80
2023-03-29T17:46:06.039Z,2.22
2023-03-29T17:48:33.748Z,1.63
2023-03-29T17:51:01.155Z,4.22
2023-03-29T17:53:28.722Z,2.13
2023-03-29T17:55:56.357Z,3.45
2023-03-29T17:58:23.891Z,2.42
2023-03-29T18:00:51.290Z,1.75
2023-03-29T18:03:18.920Z,2.13
2023-03-29T18:05:46.586Z,1.98
2023-03-29T18:08:15.060Z,2.38
2023-03-29T18:10:43.013Z,4.65
2023-03-29T18:13:13.811Z,3.53
2023-03-29T18:15:41.608Z,1.30
2023-03-29T18:18:09.078Z,2.10
2023-03-29T18:20:36.314Z,2.30
2023-03-29T18:23:03.641Z,2.33
2023-03-29T18:25:30.900Z,3.13
2023-03-29T18:27:58.206Z,1.75
2023-03-29T18:30:25.844Z,1.95
2023-03-29T18:32:53.313Z,2.35
2023-03-29T18:35:20.578Z,4.03
2023-03-29T18:37:47.759Z,2.92
2023-03-29T18:40:15.908Z,5.43
2023-03-29T18:42:43.202Z,1.13
2023-03-29T18:45:11.153Z,1.02
2023-03-29T18:47:38.377Z,2.53
2023-03-29T18:50:05.997Z,1.60
2023-03-29T18:52:33.262Z,1.33
2023-03-29T18:55:00.594Z,8.43
2023-03-29T18:57:27.868Z,3.53
2023-03-29T18:59:55.223Z,2.33
2023-03-29T19:02:22.449Z,1.27
2023-03-29T19:04:49.700Z,2.50
2023-03-29T19:07:17.748Z,2.25
2023-03-29T19:09:45.296Z,5.82
2023-03-29T19:12:12.482Z,2.63
2023-03-29T19:14:39.741Z,2.97
2023-03-29T19:17:06.926Z,5.38
2023-03-29T19:19:34.117Z,2.92
2023-03-29T19:22:01.281Z,2.35
2023-03-29T19:24:28.550Z,3.47
2023-03-29T19:26:56.566Z,2.70
2023-03-29T19:29:24.066Z,3.30
2023-03-29T19:31:51.923Z,2.28
2023-03-29T19:34:23.839Z,2.75
2023-03-29T19:36:51.749Z,3.17
2023-03-29T19:39:18.934Z,2.38
2023-03-29T19:41:46.108Z,1.35
2023-03-29T19:44:13.750Z,7.13
2023-03-29T19:46:41.555Z,6.10
2023-03-29T19:49:13.550Z,4.88
2023-03-29T19:51:41.983Z,4.90
2023-03-29T19:54:11.320Z,5.22
2023-03-29T19:56:38.832Z,7.22
2023-03-29T19:59:06.158Z,6.32
2023-03-29T20:01:33.872Z,7.40
2023-03-29T20:04:02.488Z,9.00
2023-03-29T20:06:29.794Z,6.47
2023-03-29T20:08:57.707Z,10.10
2023-03-29T20:11:24.985Z,7.78
2023-03-29T20:13:52.180Z,6.93
2023-03-29T20:16:24.182Z,6.80
2023-03-29T20:18:53.976Z,9.10
2023-03-29T20:21:21.282Z,6.30
2023-03-29T20:23:48.585Z,5.28
2023-03-29T20:26:15.795Z,7.40
2023-03-29T20:28:42.989Z,5.55
2023-03-29T20:31:11.005Z,4.80
2023-03-29T20:33:39.156Z,5.55
2023-03-29T20:36:07.003Z,5.85
2023-03-29T20:38:35.361Z,7.38
2023-03-29T20:41:08.897Z,7.05
2023-03-29T20:43:40.835Z,6.45
2023-03-29T20:46:14.568Z,5.13
2023-03-29T20:48:54.519Z,6.07
2023-03-29T20:51:32.016Z,5.15
2023-03-29T20:54:04.409Z,5.07
2023-03-29T20:56:40.044Z,4.00
2023-03-29T20:59:10.758Z,6.75
2023-03-29T21:01:40.791Z,2.13
2023-03-29T21:04:09.145Z,9.15
2023-03-29T21:06:39.482Z,4.10
2023-03-29T21:09:07.107Z,4.90
2023-03-29T21:11:34.302Z,3.75
2023-03-29T21:14:02.705Z,3.20
2023-03-29T21:16:30.955Z,4.03
2023-03-29T21:18:58.288Z,5.38
2023-03-29T21:21:25.550Z,3.78
2023-03-29T21:23:52.725Z,4.55
2023-03-29T21:26:20.286Z,3.17
2023-03-29T21:28:48.662Z,3.47
2023-03-29T21:31:15.985Z,3.90
2023-03-29T21:33:43.166Z,2.60
2023-03-29T21:36:10.686Z,7.07
2023-03-29T21:38:37.914Z,5.43
2023-03-29T21:41:05.524Z,10.60
2023-03-29T21:43:33.006Z,8.25
2023-03-29T21:46:00.813Z,6.13
2023-03-29T21:48:29.135Z,9.10
2023-03-29T21:50:56.661Z,12.45
2023-03-29T21:53:24.636Z,11.35
2023-03-29T21:55:52.402Z,7.80
2023-03-29T21:58:20.436Z,9.00
2023-03-29T22:00:48.563Z,11.13
2023-03-29T22:03:16.643Z,8.67
2023-03-29T22:05:47.684Z,12.53
2023-03-29T22:08:14.838Z,6.47
2023-03-29T22:10:42.003Z,7.03
2023-03-29T22:13:09.539Z,11.00
2023-03-29T22:15:36.727Z,8.15
2023-03-29T22:18:05.178Z,8.30
2023-03-29T22:20:34.162Z,9.52
2023-03-29T22:23:01.362Z,7.80
2023-03-29T22:25:28.760Z,8.95
2023-03-29T22:27:56.143Z,6.20
2023-03-29T22:30:23.636Z,10.73
2023-03-29T22:32:50.813Z,10.45
2023-03-29T22:35:18.085Z,9.70
2023-03-29T22:37:45.526Z,8.07
2023-03-29T22:40:13.432Z,13.30
2023-03-29T22:42:40.688Z,7.72
2023-03-29T22:45:08.944Z,8.27
2023-03-29T22:47:36.682Z,6.13
2023-03-29T22:50:04.211Z,7.95
2023-03-29T22:52:31.824Z,12.05
2023-03-29T22:54:59.140Z,6.82
2023-03-29T22:57:26.349Z,5.30
2023-03-29T22:59:53.721Z,8.23
2023-03-29T23:02:21.688Z,13.70
2023-03-29T23:04:49.105Z,7.82
2023-03-29T23:07:16.600Z,12.20
2023-03-29T23:09:44.475Z,6.97
2023-03-29T23:12:11.818Z,6.90
2023-03-29T23:14:42.500Z,8.35
2023-03-29T23:17:10.342Z,8.88
2023-03-29T23:19:38.086Z,6.40
2023-03-29T23:22:05.256Z,6.63
2023-03-29T23:24:33.347Z,11.02
2023-03-29T23:27:01.138Z,10.40
2023-03-29T23:29:28.365Z,6.32
2023-03-29T23:31:56.742Z,7.03
2023-03-29T23:34:24.049Z,9.18
2023-03-29T23:36:51.221Z,4.13
2023-03-29T23:39:18.752Z,6.97
2023-03-29T23:41:46.150Z,5.72
2023-03-29T23:44:13.382Z,4.13
2023-03-29T23:46:41.776Z,5.82
2023-03-29T23:49:10.534Z,5.47
2023-03-29T23:51:39.246Z,5.43
2023-03-29T23:54:07.094Z,6.32
2023-03-29T23:56:34.273Z,6.38
2023-03-29T23:59:01.510Z,5.57
